Hunter, North Dakota
Current Conditions -  °F | °C
As of 4:53 PM on Wednesday 22 Oct 2014 (Local Time) from KFAR Reporting Station
Overcast Overcast  
Wind Chill: 60°   Ceiling: 3900
Heat Index: 60°   Visibility: 9mi
Dew Point: 51°   Wind: 15mph
Humidity: 72%   Direction: 240°WSW
Pressure: 29.85"   Gusts: NA
Location:  47.19°N, 97.22°W
Report Text: KFAR 222153Z 24013KT 9SM OVC039 16/11 A2985 RMK AO2 SLP109 T01560106
Loading
Personal Weather Stations






























Interactive Weather Map
Tropical Storm Tracking
New forecast layout! Learn more

10-Day Weather Forecast

Advertisements
Track Severe Weather on mobile